createdAt,value
2023-01-20T00:01:40.199Z,2.61
2023-01-20T00:04:07.388Z,2.60
2023-01-20T00:06:34.791Z,2.59
2023-01-20T00:09:03.119Z,2.58
2023-01-20T00:11:30.513Z,2.57
2023-01-20T00:13:59.486Z,2.57
2023-01-20T00:16:26.858Z,2.56
2023-01-20T00:18:54.317Z,2.55
2023-01-20T00:21:21.654Z,2.53
2023-01-20T00:23:50.345Z,2.50
2023-01-20T00:26:19.594Z,2.49
2023-01-20T00:28:47.314Z,2.46
2023-01-20T00:31:28.656Z,2.43
2023-01-20T00:33:57.352Z,2.42
2023-01-20T00:36:25.008Z,2.40
2023-01-20T00:38:52.318Z,2.38
2023-01-20T00:41:19.683Z,2.36
2023-01-20T00:43:46.980Z,2.33
2023-01-20T00:46:14.235Z,2.31
2023-01-20T00:48:41.614Z,2.29
2023-01-20T00:51:09.270Z,2.29
2023-01-20T00:53:36.751Z,2.28
2023-01-20T00:56:04.332Z,2.26
2023-01-20T00:58:31.627Z,2.24
2023-01-20T01:00:59.189Z,2.23
2023-01-20T01:03:28.307Z,2.22
2023-01-20T01:05:55.612Z,2.20
2023-01-20T01:08:22.826Z,2.18
2023-01-20T01:10:50.034Z,2.18
2023-01-20T01:13:17.296Z,2.18
2023-01-20T01:15:50.633Z,2.18
2023-01-20T01:18:17.937Z,2.19
2023-01-20T01:20:45.355Z,2.19
2023-01-20T01:23:13.038Z,2.21
2023-01-20T01:25:40.247Z,2.22
2023-01-20T01:28:07.591Z,2.23
2023-01-20T01:30:34.802Z,2.22
2023-01-20T01:33:02.070Z,2.20
2023-01-20T01:35:29.312Z,2.19
2023-01-20T01:37:56.536Z,2.20
2023-01-20T01:40:24.659Z,2.21
2023-01-20T01:42:51.898Z,2.21
2023-01-20T01:45:22.071Z,2.21
2023-01-20T01:47:50.867Z,2.22
2023-01-20T01:50:47.845Z,2.23
2023-01-20T01:53:15.098Z,2.25
2023-01-20T01:55:45.396Z,2.25
2023-01-20T01:58:15.031Z,2.26
2023-01-20T02:00:43.402Z,2.25
2023-01-20T02:03:10.671Z,2.25
2023-01-20T02:05:37.957Z,2.24
2023-01-20T02:08:05.837Z,2.24
2023-01-20T02:10:33.096Z,2.25
2023-01-20T02:13:00.387Z,2.25
2023-01-20T02:15:38.267Z,2.26
2023-01-20T02:18:27.178Z,2.26
2023-01-20T02:21:01.390Z,2.25
2023-01-20T02:23:53.368Z,2.23
2023-01-20T02:26:46.284Z,2.20
2023-01-20T02:29:39.911Z,2.18
2023-01-20T02:32:26.059Z,2.17
2023-01-20T02:34:56.312Z,2.16
2023-01-20T02:37:29.036Z,2.15
2023-01-20T02:40:26.497Z,2.14
2023-01-20T02:43:32.183Z,2.12
2023-01-20T02:46:12.415Z,2.07
2023-01-20T02:48:47.530Z,2.05
2023-01-20T02:51:54.989Z,2.02
2023-01-20T02:54:22.270Z,1.98
2023-01-20T02:56:49.490Z,1.94
2023-01-20T02:59:18.950Z,1.91
2023-01-20T03:01:51.159Z,1.88
2023-01-20T03:04:20.419Z,1.84
2023-01-20T03:06:53.116Z,1.81
2023-01-20T03:09:27.590Z,1.78
2023-01-20T03:12:01.119Z,1.76
2023-01-20T03:14:28.369Z,1.75
2023-01-20T03:16:55.659Z,1.75
2023-01-20T03:19:23.120Z,1.75
2023-01-20T03:21:50.500Z,1.73
2023-01-20T03:24:17.738Z,1.70
2023-01-20T03:26:45.045Z,1.69
2023-01-20T03:29:12.928Z,1.66
2023-01-20T03:31:43.447Z,1.65
2023-01-20T03:34:12.969Z,1.64
2023-01-20T03:36:40.901Z,1.63
2023-01-20T03:39:08.224Z,1.62
2023-01-20T03:41:47.862Z,1.63
2023-01-20T03:44:24.639Z,1.64
2023-01-20T03:47:08.889Z,1.64
2023-01-20T03:49:37.371Z,1.64
2023-01-20T03:52:09.560Z,1.63
2023-01-20T03:54:46.019Z,1.64
2023-01-20T03:57:16.162Z,1.65
2023-01-20T03:59:43.692Z,1.65
2023-01-20T04:02:11.123Z,1.64
2023-01-20T04:04:40.057Z,1.63
2023-01-20T04:07:10.042Z,1.61
2023-01-20T04:09:39.805Z,1.60
2023-01-20T04:12:07.377Z,1.59
2023-01-20T04:14:37.787Z,1.58
2023-01-20T04:17:05.145Z,1.57
2023-01-20T04:19:32.435Z,1.56
2023-01-20T04:22:11.971Z,1.55
2023-01-20T04:24:46.206Z,1.53
2023-01-20T04:27:13.504Z,1.50
2023-01-20T04:29:41.783Z,1.48
2023-01-20T04:32:10.347Z,1.47
2023-01-20T04:34:37.550Z,1.45
2023-01-20T04:37:04.777Z,1.44
2023-01-20T04:39:31.992Z,1.41
2023-01-20T04:41:59.362Z,1.38
2023-01-20T04:44:26.581Z,1.35
2023-01-20T04:46:58.423Z,1.32
2023-01-20T04:49:25.683Z,1.30
2023-01-20T04:51:52.873Z,1.29
2023-01-20T04:54:20.238Z,1.27
2023-01-20T04:56:50.593Z,1.26
2023-01-20T04:59:17.917Z,1.25
2023-01-20T05:01:45.212Z,1.22
2023-01-20T05:04:12.492Z,1.21
2023-01-20T05:06:42.947Z,1.19
2023-01-20T05:09:13.231Z,1.18
2023-01-20T05:11:40.614Z,1.16
2023-01-20T05:14:07.957Z,1.16
2023-01-20T05:16:35.226Z,1.16
2023-01-20T05:19:02.460Z,1.14
2023-01-20T05:21:29.884Z,1.11
2023-01-20T05:23:57.389Z,1.10
2023-01-20T05:26:25.026Z,1.07
2023-01-20T05:28:52.908Z,1.05
2023-01-20T05:31:20.245Z,1.03
2023-01-20T05:33:47.655Z,1.02
2023-01-20T05:36:14.889Z,1.01
2023-01-20T05:38:42.152Z,1.01
2023-01-20T05:41:10.106Z,1.00
2023-01-20T05:43:37.354Z,0.99
2023-01-20T05:46:05.126Z,0.99
2023-01-20T05:48:32.580Z,0.99
2023-01-20T05:50:59.856Z,0.99
2023-01-20T05:53:27.045Z,0.99
2023-01-20T05:56:04.714Z,0.99
2023-01-20T05:58:32.138Z,1.01
2023-01-20T06:01:11.120Z,1.02
2023-01-20T06:03:38.645Z,1.04
2023-01-20T06:06:08.041Z,1.05
2023-01-20T06:08:35.892Z,1.07
2023-01-20T06:11:03.252Z,1.09
2023-01-20T06:13:30.472Z,1.11
2023-01-20T06:15:57.803Z,1.13
2023-01-20T06:18:25.036Z,1.15
2023-01-20T06:20:52.285Z,1.17
2023-01-20T06:23:20.454Z,1.18
2023-01-20T06:25:47.637Z,1.20
2023-01-20T06:28:14.879Z,1.24
2023-01-20T06:30:43.481Z,1.28
2023-01-20T06:33:11.148Z,1.30
2023-01-20T06:35:38.506Z,1.33
2023-01-20T06:38:05.746Z,1.37
2023-01-20T06:40:33.046Z,1.40
2023-01-20T06:43:00.366Z,1.43
2023-01-20T06:45:28.975Z,1.47
2023-01-20T06:47:56.175Z,1.49
2023-01-20T06:50:23.516Z,1.52
2023-01-20T06:52:50.904Z,1.54
2023-01-20T06:55:18.248Z,1.57
2023-01-20T06:57:45.488Z,1.59
2023-01-20T07:00:13.835Z,1.61
2023-01-20T07:02:41.099Z,1.63
2023-01-20T07:05:09.895Z,1.66
2023-01-20T07:07:37.268Z,1.69
2023-01-20T07:10:04.824Z,1.73
2023-01-20T07:12:32.510Z,1.75
2023-01-20T07:14:59.772Z,1.79
2023-01-20T07:17:27.028Z,1.83
2023-01-20T07:19:54.279Z,1.87
2023-01-20T07:22:21.485Z,1.90
2023-01-20T07:24:49.106Z,1.94
2023-01-20T07:27:16.323Z,1.97
2023-01-20T07:29:43.805Z,2.00
2023-01-20T07:32:11.091Z,2.05
2023-01-20T07:34:38.340Z,2.11
2023-01-20T07:37:07.919Z,2.16
2023-01-20T07:39:36.688Z,2.22
2023-01-20T07:42:04.181Z,2.27
2023-01-20T07:44:32.689Z,2.31
2023-01-20T07:46:59.996Z,2.36
2023-01-20T07:49:27.632Z,2.41
2023-01-20T07:51:55.026Z,2.46
2023-01-20T07:54:22.393Z,2.52
2023-01-20T07:56:49.641Z,2.57
2023-01-20T07:59:16.938Z,2.62
2023-01-20T08:01:44.969Z,2.69
2023-01-20T08:04:14.113Z,2.73
2023-01-20T08:06:41.556Z,2.76
2023-01-20T08:09:12.514Z,2.79
2023-01-20T08:11:40.017Z,2.83
2023-01-20T08:14:07.569Z,2.87
2023-01-20T08:16:35.486Z,2.90
2023-01-20T08:19:02.766Z,2.94
2023-01-20T08:21:31.339Z,2.96
2023-01-20T08:23:59.666Z,2.96
2023-01-20T08:26:28.464Z,2.97
2023-01-20T08:28:56.966Z,3.02
2023-01-20T08:31:24.758Z,3.10
2023-01-20T08:33:53.544Z,3.18
2023-01-20T08:36:23.244Z,3.24
2023-01-20T08:38:50.497Z,3.27
2023-01-20T08:41:26.442Z,3.31
2023-01-20T09:02:27.788Z,4.03
2023-01-20T09:04:55.127Z,4.14
2023-01-20T09:07:22.342Z,4.22
2023-01-20T09:09:49.806Z,4.27
2023-01-20T09:12:17.306Z,4.29
2023-01-20T09:14:45.549Z,4.33
2023-01-20T09:17:15.622Z,4.38
2023-01-20T09:19:43.562Z,4.45
2023-01-20T09:22:11.772Z,4.54
2023-01-20T09:24:40.577Z,4.66
2023-01-20T09:27:08.008Z,4.79
2023-01-20T09:29:37.377Z,4.93
2023-01-20T09:32:04.886Z,5.06
2023-01-20T09:34:32.337Z,5.19
2023-01-20T09:37:20.114Z,5.32
2023-01-20T09:40:07.018Z,5.41
2023-01-20T09:43:19.198Z,5.52
2023-01-20T09:46:09.494Z,5.66
2023-01-20T09:49:46.846Z,5.82
2023-01-20T09:52:53.040Z,6.00
2023-01-20T09:55:31.627Z,6.05
2023-01-20T09:58:18.688Z,6.07
2023-01-20T10:00:52.330Z,6.06
2023-01-20T10:03:29.878Z,6.03
2023-01-20T10:05:57.340Z,6.01
2023-01-20T10:08:35.018Z,6.01
2023-01-20T10:11:11.180Z,6.03
2023-01-20T10:13:47.593Z,6.06
2023-01-20T10:16:29.960Z,6.07
2023-01-20T10:19:02.451Z,6.09
2023-01-20T10:43:22.285Z,6.54
2023-01-20T10:46:22.199Z,6.59
2023-01-20T10:48:55.197Z,6.53
2023-01-20T10:51:34.613Z,6.45
2023-01-20T10:54:23.162Z,6.41
2023-01-20T10:56:53.972Z,6.37
2023-01-20T10:59:45.205Z,6.35
2023-01-20T11:02:26.219Z,6.32
2023-01-20T11:04:58.957Z,6.32
2023-01-20T11:07:26.487Z,6.40
2023-01-20T11:09:53.777Z,6.51
2023-01-20T11:12:23.950Z,6.60
2023-01-20T11:14:51.226Z,6.67
2023-01-20T11:17:20.595Z,6.72
2023-01-20T11:19:57.608Z,6.73
2023-01-20T11:22:47.148Z,6.71
2023-01-20T11:25:26.778Z,6.68
2023-01-20T11:28:15.677Z,6.68
2023-01-20T11:30:43.013Z,6.67
2023-01-20T11:33:24.770Z,6.69
2023-01-20T11:36:05.261Z,6.72
2023-01-20T11:38:52.875Z,6.70
2023-01-20T11:41:29.819Z,6.62
2023-01-20T11:43:58.550Z,6.53
2023-01-20T11:46:32.579Z,6.48
2023-01-20T11:49:20.794Z,6.48
2023-01-20T11:51:57.779Z,6.55
2023-01-20T11:54:29.384Z,6.71
2023-01-20T11:57:02.151Z,6.90
2023-01-20T11:59:30.844Z,7.10
2023-01-20T12:01:58.351Z,7.28
2023-01-20T12:04:44.509Z,7.43
2023-01-20T12:07:18.889Z,7.56
2023-01-20T12:09:49.270Z,7.68
2023-01-20T12:12:48.433Z,7.71
2023-01-20T12:15:23.808Z,7.67
2023-01-20T12:18:17.425Z,7.67
2023-01-20T12:21:01.785Z,7.88
2023-01-20T12:23:46.892Z,8.20
2023-01-20T12:26:18.613Z,8.60
2023-01-20T12:28:56.905Z,8.86
2023-01-20T12:31:24.472Z,9.08
2023-01-20T12:34:04.043Z,9.24
2023-01-20T12:36:43.439Z,9.25
2023-01-20T12:39:33.171Z,9.11
2023-01-20T12:42:18.834Z,9.07
2023-01-20T12:44:52.339Z,9.06
2023-01-20T12:47:38.075Z,9.02
2023-01-20T12:50:11.246Z,8.98
2023-01-20T12:52:38.478Z,8.98
2023-01-20T12:55:11.972Z,8.90
2023-01-20T12:57:48.336Z,8.82
2023-01-20T13:00:36.996Z,8.76
2023-01-20T13:03:17.036Z,8.73
2023-01-20T13:06:01.492Z,8.74
2023-01-20T13:08:51.581Z,8.70
2023-01-20T13:11:41.387Z,8.54
2023-01-20T13:14:19.200Z,8.48
2023-01-20T13:17:03.025Z,8.43
2023-01-20T13:19:37.646Z,8.35
2023-01-20T13:22:20.280Z,8.30
2023-01-20T13:24:58.188Z,8.19
2023-01-20T13:27:28.752Z,8.09
2023-01-20T13:29:57.433Z,7.96
2023-01-20T13:32:30.922Z,7.84
2023-01-20T13:34:58.511Z,7.71
2023-01-20T13:37:29.769Z,7.55
2023-01-20T13:40:03.586Z,7.38
2023-01-20T13:42:39.923Z,7.16
2023-01-20T13:45:11.095Z,6.86
2023-01-20T13:48:02.740Z,6.61
2023-01-20T13:50:39.322Z,6.33
2023-01-20T13:53:15.275Z,6.12
2023-01-20T13:55:45.289Z,5.96
2023-01-20T13:58:25.403Z,5.77
2023-01-20T14:01:03.138Z,5.50
2023-01-20T14:03:37.158Z,5.26
2023-01-20T14:06:14.267Z,5.05
2023-01-20T14:08:46.411Z,4.83
2023-01-20T14:11:24.074Z,4.65
2023-01-20T14:14:02.180Z,4.48
2023-01-20T14:16:35.377Z,4.32
2023-01-20T14:19:14.283Z,4.14
2023-01-20T14:21:41.910Z,3.93
2023-01-20T14:35:52.706Z,3.58
2023-01-20T14:38:20.027Z,3.41
2023-01-20T14:40:47.203Z,3.27
2023-01-20T14:43:22.783Z,3.12
2023-01-20T14:45:51.961Z,2.95
2023-01-20T14:48:33.386Z,2.80
2023-01-20T14:51:04.561Z,2.67
2023-01-20T14:53:33.387Z,2.55
2023-01-20T14:56:04.749Z,2.44
2023-01-20T14:58:32.022Z,2.34
2023-01-20T15:01:01.697Z,2.24
2023-01-20T15:03:29.394Z,2.14
2023-01-20T15:05:58.467Z,2.03
2023-01-20T15:08:34.996Z,1.93
2023-01-20T15:11:15.539Z,1.84
2023-01-20T15:14:15.821Z,1.76
2023-01-20T15:16:53.878Z,1.67
2023-01-20T15:19:34.398Z,1.61
2023-01-20T15:22:42.503Z,1.53
2023-01-20T15:25:19.916Z,1.45
2023-01-20T15:27:52.647Z,1.39
2023-01-20T15:30:24.077Z,1.34
2023-01-20T15:32:51.726Z,1.30
2023-01-20T15:35:21.232Z,1.26
2023-01-20T15:37:48.756Z,1.22
2023-01-20T15:40:18.007Z,1.18
2023-01-20T15:42:46.148Z,1.13
2023-01-20T15:45:16.843Z,1.08
2023-01-20T15:47:45.223Z,1.04
2023-01-20T15:50:17.865Z,1.02
2023-01-20T15:52:45.429Z,0.99
2023-01-20T15:55:16.600Z,0.94
2023-01-20T15:57:44.061Z,0.90
2023-01-20T16:00:16.730Z,0.85
2023-01-20T16:02:44.336Z,0.83
2023-01-20T16:05:22.357Z,0.79
2023-01-20T16:07:52.669Z,0.74
2023-01-20T16:10:20.083Z,0.69
2023-01-20T16:12:47.532Z,0.62
2023-01-20T16:15:16.441Z,0.57
2023-01-20T16:17:43.943Z,0.51
2023-01-20T16:20:20.003Z,0.47
2023-01-20T16:22:47.317Z,0.43
2023-01-20T16:25:14.558Z,0.39
2023-01-20T16:27:41.787Z,0.35
2023-01-20T16:30:16.698Z,0.31
2023-01-20T16:32:46.416Z,0.28
2023-01-20T16:35:17.603Z,0.23
2023-01-20T16:37:46.034Z,0.20
2023-01-20T16:40:15.123Z,0.17
2023-01-20T16:42:42.727Z,0.16
2023-01-20T16:45:29.524Z,0.14
2023-01-20T16:47:57.408Z,0.12
2023-01-20T16:50:28.059Z,0.11
2023-01-20T16:52:55.861Z,0.08
2023-01-20T16:55:24.230Z,0.06
2023-01-20T16:57:52.229Z,0.05
2023-01-20T17:00:20.718Z,0.04
2023-01-20T17:02:52.704Z,0.03
2023-01-20T17:05:22.928Z,0.02
2023-01-20T17:07:50.511Z,0.02
2023-01-20T17:10:18.257Z,0.01
2023-01-20T17:12:48.732Z,-0.00
2023-01-20T17:15:16.199Z,-0.02
2023-01-20T17:17:43.675Z,-0.03
2023-01-20T17:20:11.008Z,-0.02
2023-01-20T17:22:41.702Z,-0.03
2023-01-20T17:25:09.333Z,-0.04
2023-01-20T17:27:37.376Z,-0.05
2023-01-20T17:30:05.782Z,-0.06
2023-01-20T17:32:33.590Z,-0.08
2023-01-20T17:35:00.800Z,-0.09
2023-01-20T17:37:28.075Z,-0.10
2023-01-20T17:39:55.256Z,-0.11
2023-01-20T17:42:22.449Z,-0.10
2023-01-20T17:44:49.623Z,-0.11
2023-01-20T17:47:16.813Z,-0.11
2023-01-20T17:49:44.026Z,-0.12
2023-01-20T17:52:11.256Z,-0.12
2023-01-20T17:54:38.583Z,-0.13
2023-01-20T17:57:05.771Z,-0.13
2023-01-20T17:59:32.959Z,-0.13
2023-01-20T18:02:00.242Z,-0.12
2023-01-20T18:04:28.520Z,-0.12
2023-01-20T18:06:56.047Z,-0.12
2023-01-20T18:09:23.223Z,-0.11
2023-01-20T18:12:22.617Z,-0.10
2023-01-20T18:14:49.849Z,-0.08
2023-01-20T18:17:17.032Z,-0.08
2023-01-20T18:19:44.196Z,-0.08
2023-01-20T18:22:12.913Z,-0.08
2023-01-20T18:24:40.358Z,-0.08
2023-01-20T18:27:07.516Z,-0.07
2023-01-20T18:29:36.382Z,-0.07
2023-01-20T18:32:03.690Z,-0.07
2023-01-20T18:34:30.926Z,-0.07
2023-01-20T18:36:58.216Z,-0.08
2023-01-20T18:39:25.917Z,-0.08
2023-01-20T18:41:53.251Z,-0.09
2023-01-20T18:44:20.830Z,-0.08
2023-01-20T18:46:48.044Z,-0.07
2023-01-20T18:49:16.299Z,-0.06
2023-01-20T18:51:43.892Z,-0.06
2023-01-20T18:54:13.195Z,-0.07
2023-01-20T18:56:40.507Z,-0.06
2023-01-20T18:59:07.805Z,-0.06
2023-01-20T19:01:37.001Z,-0.05
2023-01-20T19:04:04.689Z,-0.04
2023-01-20T19:06:34.601Z,-0.04
2023-01-20T19:09:01.949Z,-0.04
2023-01-20T19:11:31.773Z,-0.06
2023-01-20T19:13:59.131Z,-0.07
2023-01-20T19:16:28.262Z,-0.06
2023-01-20T19:19:00.275Z,-0.06
2023-01-20T19:21:27.588Z,-0.06
2023-01-20T19:23:56.629Z,-0.08
2023-01-20T19:26:24.866Z,-0.09
2023-01-20T19:28:57.538Z,-0.10
2023-01-20T19:31:24.894Z,-0.09
2023-01-20T19:33:52.368Z,-0.09
2023-01-20T19:36:19.691Z,-0.08
2023-01-20T19:38:47.198Z,-0.08
2023-01-20T19:41:16.270Z,-0.08
2023-01-20T19:43:43.913Z,-0.07
2023-01-20T19:46:14.689Z,-0.07
2023-01-20T19:48:42.106Z,-0.07
2023-01-20T19:51:14.209Z,-0.07
2023-01-20T19:53:41.846Z,-0.08
2023-01-20T19:56:10.835Z,-0.08
2023-01-20T19:58:39.452Z,-0.07
2023-01-20T20:01:11.098Z,-0.06
2023-01-20T20:03:38.348Z,-0.06
2023-01-20T20:06:06.109Z,-0.07
2023-01-20T20:08:33.718Z,-0.08
2023-01-20T20:11:00.894Z,-0.09
2023-01-20T20:13:28.129Z,-0.09
2023-01-20T20:16:02.825Z,-0.08
2023-01-20T20:18:30.203Z,-0.08
2023-01-20T20:20:57.467Z,-0.08
2023-01-20T20:23:26.137Z,-0.07
2023-01-20T20:25:57.611Z,-0.06
2023-01-20T20:28:25.918Z,-0.05
2023-01-20T20:30:55.742Z,-0.04
2023-01-20T20:33:24.409Z,-0.02
2023-01-20T20:35:51.664Z,0.00
2023-01-20T20:38:19.235Z,0.01
2023-01-20T20:40:49.128Z,0.02
2023-01-20T20:43:17.089Z,0.02
2023-01-20T20:45:48.700Z,0.02
2023-01-20T20:48:20.785Z,0.01
2023-01-20T20:50:48.424Z,0.02
2023-01-20T20:53:18.391Z,0.02
2023-01-20T20:55:46.280Z,0.01
2023-01-20T20:58:13.488Z,0.02
2023-01-20T21:00:40.782Z,0.02
2023-01-20T21:03:08.741Z,0.02
2023-01-20T21:05:36.120Z,0.02
2023-01-20T21:08:06.305Z,0.00
2023-01-20T21:10:34.413Z,0.01
2023-01-20T21:13:01.865Z,0.00
2023-01-20T21:15:30.754Z,-0.02
2023-01-20T21:17:58.618Z,-0.03
2023-01-20T21:20:25.966Z,-0.04
2023-01-20T21:22:53.148Z,-0.05
2023-01-20T21:25:24.260Z,-0.05
2023-01-20T21:27:51.594Z,-0.06
2023-01-20T21:30:19.533Z,-0.07
2023-01-20T21:32:47.259Z,-0.08
2023-01-20T21:35:14.459Z,-0.09
2023-01-20T21:37:41.668Z,-0.10
2023-01-20T21:40:09.913Z,-0.11
2023-01-20T21:42:37.142Z,-0.11
2023-01-20T21:45:04.970Z,-0.12
2023-01-20T21:47:32.297Z,-0.14
2023-01-20T21:50:18.410Z,-0.15
2023-01-20T21:52:45.838Z,-0.16
2023-01-20T21:55:21.822Z,-0.16
2023-01-20T21:57:51.136Z,-0.16
2023-01-20T22:00:19.646Z,-0.17
2023-01-20T22:02:47.247Z,-0.18
2023-01-20T22:05:14.736Z,-0.18
2023-01-20T22:07:41.970Z,-0.18
2023-01-20T22:10:10.330Z,-0.17
2023-01-20T22:12:39.211Z,-0.17
2023-01-20T22:15:07.650Z,-0.17
2023-01-20T22:17:34.893Z,-0.16
2023-01-20T22:20:02.227Z,-0.17
2023-01-20T22:22:29.738Z,-0.17
2023-01-20T22:24:57.586Z,-0.18
2023-01-20T22:27:25.405Z,-0.19
2023-01-20T22:29:53.122Z,-0.20
2023-01-20T22:32:20.303Z,-0.22
2023-01-20T22:34:48.158Z,-0.24
2023-01-20T22:37:15.907Z,-0.27
2023-01-20T22:39:43.269Z,-0.28
2023-01-20T22:42:11.166Z,-0.31
2023-01-20T22:44:39.221Z,-0.33
2023-01-20T22:47:10.587Z,-0.34
2023-01-20T22:49:38.253Z,-0.33
2023-01-20T22:52:05.695Z,-0.34
2023-01-20T22:54:34.134Z,-0.36
2023-01-20T22:57:01.471Z,-0.36
2023-01-20T22:59:28.928Z,-0.38
2023-01-20T23:01:56.202Z,-0.40
2023-01-20T23:04:23.508Z,-0.41
2023-01-20T23:06:50.899Z,-0.43
2023-01-20T23:09:18.254Z,-0.44
2023-01-20T23:11:46.034Z,-0.47
2023-01-20T23:14:14.247Z,-0.48
2023-01-20T23:16:42.438Z,-0.51
2023-01-20T23:19:09.826Z,-0.53
2023-01-20T23:21:37.441Z,-0.57
2023-01-20T23:24:05.257Z,-0.59
2023-01-20T23:26:34.499Z,-0.62
2023-01-20T23:29:02.475Z,-0.64
2023-01-20T23:31:33.604Z,-0.66
2023-01-20T23:34:01.038Z,-0.68
2023-01-20T23:36:28.274Z,-0.71
2023-01-20T23:38:56.168Z,-0.74
2023-01-20T23:41:23.531Z,-0.78
2023-01-20T23:43:50.810Z,-0.80
2023-01-20T23:46:18.108Z,-0.83
2023-01-20T23:48:47.086Z,-0.84
2023-01-20T23:51:14.590Z,-0.88
2023-01-20T23:53:42.101Z,-0.90
2023-01-20T23:56:18.704Z,-0.93
2023-01-20T23:58:46.275Z,-0.95
